sensor_id;sensor_type;location;lat;lon;timestamp;temperature;humidity
55064;DHT22;40963;52.168;21.296;2023-03-21T00:00:58;8.60;99.90
55064;DHT22;40963;52.168;21.296;2023-03-21T00:03:24;8.60;99.90
55064;DHT22;40963;52.168;21.296;2023-03-21T00:05:51;8.60;99.90
55064;DHT22;40963;52.168;21.296;2023-03-21T00:08:19;8.60;99.90
55064;DHT22;40963;52.168;21.296;2023-03-21T00:10:45;8.60;99.90
55064;DHT22;40963;52.168;21.296;2023-03-21T00:13:12;8.50;99.90
55064;DHT22;40963;52.168;21.296;2023-03-21T00:15:38;8.50;99.90
55064;DHT22;40963;52.168;21.296;2023-03-21T00:18:15;8.50;99.90
55064;DHT22;40963;52.168;21.296;2023-03-21T00:20:40;8.50;99.90
55064;DHT22;40963;52.168;21.296;2023-03-21T00:23:06;8.50;99.90
55064;DHT22;40963;52.168;21.296;2023-03-21T00:25:32;8.50;99.90
55064;DHT22;40963;52.168;21.296;2023-03-21T00:27:58;8.50;99.90
55064;DHT22;40963;52.168;21.296;2023-03-21T00:30:23;8.40;99.90
55064;DHT22;40963;52.168;21.296;2023-03-21T00:32:49;8.50;99.90
55064;DHT22;40963;52.168;21.296;2023-03-21T00:35:15;8.50;99.90
55064;DHT22;40963;52.168;21.296;2023-03-21T00:37:40;8.40;99.90
55064;DHT22;40963;52.168;21.296;2023-03-21T00:40:08;8.40;99.90
55064;DHT22;40963;52.168;21.296;2023-03-21T00:42:35;8.40;99.90
55064;DHT22;40963;52.168;21.296;2023-03-21T00:45:01;8.50;99.90
55064;DHT22;40963;52.168;21.296;2023-03-21T00:47:27;8.40;99.90
55064;DHT22;40963;52.168;21.296;2023-03-21T00:49:53;8.40;99.90
55064;DHT22;40963;52.168;21.296;2023-03-21T00:52:19;8.40;99.90
55064;DHT22;40963;52.168;21.296;2023-03-21T00:54:44;8.40;99.90
55064;DHT22;40963;52.168;21.296;2023-03-21T00:57:10;8.40;99.90
55064;DHT22;40963;52.168;21.296;2023-03-21T00:59:36;8.40;99.90
55064;DHT22;40963;52.168;21.296;2023-03-21T01:02:01;8.30;99.90
55064;DHT22;40963;52.168;21.296;2023-03-21T01:04:32;8.30;99.90
55064;DHT22;40963;52.168;21.296;2023-03-21T01:07:00;8.30;99.90
55064;DHT22;40963;52.168;21.296;2023-03-21T01:09:26;8.30;99.90
55064;DHT22;40963;52.168;21.296;2023-03-21T01:11:52;8.30;99.90
55064;DHT22;40963;52.168;21.296;2023-03-21T01:14:19;8.30;99.90
55064;DHT22;40963;52.168;21.296;2023-03-21T01:16:46;8.30;99.90
55064;DHT22;40963;52.168;21.296;2023-03-21T01:19:15;8.30;99.90
55064;DHT22;40963;52.168;21.296;2023-03-21T01:21:42;8.30;99.90
55064;DHT22;40963;52.168;21.296;2023-03-21T01:24:08;8.30;99.90
55064;DHT22;40963;52.168;21.296;2023-03-21T01:26:35;8.30;99.90
55064;DHT22;40963;52.168;21.296;2023-03-21T01:29:02;8.30;99.90
55064;DHT22;40963;52.168;21.296;2023-03-21T01:31:28;8.30;99.90
55064;DHT22;40963;52.168;21.296;2023-03-21T01:33:54;8.30;99.90
55064;DHT22;40963;52.168;21.296;2023-03-21T01:36:22;8.30;99.90
55064;DHT22;40963;52.168;21.296;2023-03-21T01:38:49;8.30;99.90
55064;DHT22;40963;52.168;21.296;2023-03-21T01:41:36;8.30;99.90
55064;DHT22;40963;52.168;21.296;2023-03-21T01:44:02;8.30;99.90
55064;DHT22;40963;52.168;21.296;2023-03-21T01:46:49;8.30;99.90
55064;DHT22;40963;52.168;21.296;2023-03-21T01:49:22;8.30;99.90
55064;DHT22;40963;52.168;21.296;2023-03-21T01:51:55;8.30;99.90
55064;DHT22;40963;52.168;21.296;2023-03-21T01:54:27;8.30;99.90
55064;DHT22;40963;52.168;21.296;2023-03-21T01:56:55;8.30;99.90
55064;DHT22;40963;52.168;21.296;2023-03-21T01:59:30;8.30;99.90
55064;DHT22;40963;52.168;21.296;2023-03-21T02:02:00;8.30;99.90
55064;DHT22;40963;52.168;21.296;2023-03-21T02:04:32;8.30;99.90
55064;DHT22;40963;52.168;21.296;2023-03-21T02:07:03;8.30;99.90
55064;DHT22;40963;52.168;21.296;2023-03-21T02:09:31;8.20;99.90
55064;DHT22;40963;52.168;21.296;2023-03-21T02:11:59;8.20;99.90
55064;DHT22;40963;52.168;21.296;2023-03-21T02:14:25;8.20;99.90
55064;DHT22;40963;52.168;21.296;2023-03-21T02:31:13;8.20;99.90
55064;DHT22;40963;52.168;21.296;2023-03-21T02:45:08;8.10;99.90
55064;DHT22;40963;52.168;21.296;2023-03-21T02:47:38;8.10;99.90
55064;DHT22;40963;52.168;21.296;2023-03-21T02:50:13;8.10;99.90
55064;DHT22;40963;52.168;21.296;2023-03-21T02:52:42;8.10;99.90
55064;DHT22;40963;52.168;21.296;2023-03-21T02:55:14;8.00;99.90
55064;DHT22;40963;52.168;21.296;2023-03-21T02:57:42;8.10;99.90
55064;DHT22;40963;52.168;21.296;2023-03-21T03:00:12;8.10;99.90
55064;DHT22;40963;52.168;21.296;2023-03-21T03:02:41;8.00;99.90
55064;DHT22;40963;52.168;21.296;2023-03-21T03:05:21;8.00;99.90
55064;DHT22;40963;52.168;21.296;2023-03-21T03:07:59;8.10;99.90
55064;DHT22;40963;52.168;21.296;2023-03-21T03:10:33;8.00;99.90
55064;DHT22;40963;52.168;21.296;2023-03-21T03:14:00;8.00;99.90
55064;DHT22;40963;52.168;21.296;2023-03-21T03:16:10;8.00;99.90
55064;DHT22;40963;52.168;21.296;2023-03-21T03:18:43;8.00;99.90
55064;DHT22;40963;52.168;21.296;2023-03-21T03:26:55;8.00;99.90
55064;DHT22;40963;52.168;21.296;2023-03-21T03:29:20;8.00;99.90
55064;DHT22;40963;52.168;21.296;2023-03-21T03:31:55;8.00;99.90
55064;DHT22;40963;52.168;21.296;2023-03-21T03:34:25;8.00;99.90
55064;DHT22;40963;52.168;21.296;2023-03-21T03:36:56;8.00;99.90
55064;DHT22;40963;52.168;21.296;2023-03-21T03:39:32;7.90;99.90
55064;DHT22;40963;52.168;21.296;2023-03-21T03:42:06;7.90;99.90
55064;DHT22;40963;52.168;21.296;2023-03-21T03:44:35;7.90;99.90
55064;DHT22;40963;52.168;21.296;2023-03-21T03:47:15;7.90;99.90
55064;DHT22;40963;52.168;21.296;2023-03-21T03:49:48;8.00;99.90
55064;DHT22;40963;52.168;21.296;2023-03-21T03:52:20;7.90;99.90
55064;DHT22;40963;52.168;21.296;2023-03-21T03:54:48;7.90;99.90
55064;DHT22;40963;52.168;21.296;2023-03-21T03:57:15;7.90;99.90
55064;DHT22;40963;52.168;21.296;2023-03-21T03:59:43;7.90;99.90
55064;DHT22;40963;52.168;21.296;2023-03-21T04:02:10;7.90;99.90
55064;DHT22;40963;52.168;21.296;2023-03-21T04:04:35;7.90;99.90
55064;DHT22;40963;52.168;21.296;2023-03-21T04:07:02;7.90;99.90
55064;DHT22;40963;52.168;21.296;2023-03-21T04:09:28;7.90;99.90
55064;DHT22;40963;52.168;21.296;2023-03-21T04:11:55;7.90;99.90
55064;DHT22;40963;52.168;21.296;2023-03-21T04:14:21;7.90;99.90
55064;DHT22;40963;52.168;21.296;2023-03-21T04:16:47;7.90;99.90
55064;DHT22;40963;52.168;21.296;2023-03-21T04:19:14;7.90;99.90
55064;DHT22;40963;52.168;21.296;2023-03-21T04:21:43;7.90;99.90
55064;DHT22;40963;52.168;21.296;2023-03-21T04:24:09;7.90;99.90
55064;DHT22;40963;52.168;21.296;2023-03-21T04:26:36;7.90;99.90
55064;DHT22;40963;52.168;21.296;2023-03-21T04:29:04;7.90;99.90
55064;DHT22;40963;52.168;21.296;2023-03-21T04:31:30;7.90;99.90
55064;DHT22;40963;52.168;21.296;2023-03-21T04:33:59;7.90;99.90
55064;DHT22;40963;52.168;21.296;2023-03-21T04:36:25;7.90;99.90
55064;DHT22;40963;52.168;21.296;2023-03-21T04:39:06;7.90;99.90
55064;DHT22;40963;52.168;21.296;2023-03-21T04:41:40;7.90;99.90
55064;DHT22;40963;52.168;21.296;2023-03-21T04:44:07;7.90;99.90
55064;DHT22;40963;52.168;21.296;2023-03-21T04:46:33;7.90;99.90
55064;DHT22;40963;52.168;21.296;2023-03-21T04:48:59;7.90;99.90
55064;DHT22;40963;52.168;21.296;2023-03-21T04:51:25;7.90;99.90
55064;DHT22;40963;52.168;21.296;2023-03-21T04:53:51;7.90;99.90
55064;DHT22;40963;52.168;21.296;2023-03-21T04:56:17;7.90;99.90
55064;DHT22;40963;52.168;21.296;2023-03-21T04:58:43;7.90;99.90
55064;DHT22;40963;52.168;21.296;2023-03-21T05:01:09;7.90;99.90
55064;DHT22;40963;52.168;21.296;2023-03-21T05:03:35;7.90;99.90
55064;DHT22;40963;52.168;21.296;2023-03-21T05:06:06;7.90;99.90
55064;DHT22;40963;52.168;21.296;2023-03-21T05:08:33;7.90;99.90
55064;DHT22;40963;52.168;21.296;2023-03-21T05:11:00;7.90;99.90
55064;DHT22;40963;52.168;21.296;2023-03-21T05:13:25;7.80;99.90
55064;DHT22;40963;52.168;21.296;2023-03-21T05:15:51;7.90;99.90
55064;DHT22;40963;52.168;21.296;2023-03-21T05:18:17;7.80;99.90
55064;DHT22;40963;52.168;21.296;2023-03-21T05:20:50;7.90;99.90
55064;DHT22;40963;52.168;21.296;2023-03-21T05:23:22;7.80;99.90
55064;DHT22;40963;52.168;21.296;2023-03-21T05:25:48;7.80;99.90
55064;DHT22;40963;52.168;21.296;2023-03-21T05:28:15;7.80;99.90
55064;DHT22;40963;52.168;21.296;2023-03-21T05:30:44;7.80;99.90
55064;DHT22;40963;52.168;21.296;2023-03-21T05:33:11;7.90;99.90
55064;DHT22;40963;52.168;21.296;2023-03-21T05:35:37;7.80;99.90
55064;DHT22;40963;52.168;21.296;2023-03-21T05:38:03;7.90;99.90
55064;DHT22;40963;52.168;21.296;2023-03-21T05:40:29;7.90;99.90
55064;DHT22;40963;52.168;21.296;2023-03-21T05:42:55;7.90;99.90
55064;DHT22;40963;52.168;21.296;2023-03-21T05:45:20;8.00;99.90
55064;DHT22;40963;52.168;21.296;2023-03-21T05:47:46;8.00;99.90
55064;DHT22;40963;52.168;21.296;2023-03-21T05:50:12;8.00;99.90
55064;DHT22;40963;52.168;21.296;2023-03-21T05:52:38;8.00;99.90
55064;DHT22;40963;52.168;21.296;2023-03-21T05:55:05;8.00;99.90
55064;DHT22;40963;52.168;21.296;2023-03-21T05:57:30;8.00;99.90
55064;DHT22;40963;52.168;21.296;2023-03-21T06:00:00;8.00;99.90
55064;DHT22;40963;52.168;21.296;2023-03-21T06:02:26;8.00;99.90
55064;DHT22;40963;52.168;21.296;2023-03-21T06:04:52;8.00;99.90
55064;DHT22;40963;52.168;21.296;2023-03-21T06:07:17;8.00;99.90
55064;DHT22;40963;52.168;21.296;2023-03-21T06:09:43;8.00;99.90
55064;DHT22;40963;52.168;21.296;2023-03-21T06:12:09;8.00;99.90
55064;DHT22;40963;52.168;21.296;2023-03-21T06:14:36;8.00;99.90
55064;DHT22;40963;52.168;21.296;2023-03-21T06:17:02;8.00;99.90
55064;DHT22;40963;52.168;21.296;2023-03-21T06:19:27;8.00;99.90
55064;DHT22;40963;52.168;21.296;2023-03-21T06:21:53;8.00;99.90
55064;DHT22;40963;52.168;21.296;2023-03-21T06:24:19;8.00;99.90
55064;DHT22;40963;52.168;21.296;2023-03-21T06:26:44;8.00;99.90
55064;DHT22;40963;52.168;21.296;2023-03-21T06:29:11;8.00;99.90
55064;DHT22;40963;52.168;21.296;2023-03-21T06:31:36;7.90;99.90
55064;DHT22;40963;52.168;21.296;2023-03-21T06:34:02;7.90;99.90
55064;DHT22;40963;52.168;21.296;2023-03-21T06:36:28;7.90;99.90
55064;DHT22;40963;52.168;21.296;2023-03-21T06:38:53;7.90;99.90
55064;DHT22;40963;52.168;21.296;2023-03-21T06:41:19;7.90;99.90
55064;DHT22;40963;52.168;21.296;2023-03-21T06:43:45;8.00;99.90
55064;DHT22;40963;52.168;21.296;2023-03-21T06:46:13;8.00;99.90
55064;DHT22;40963;52.168;21.296;2023-03-21T06:48:38;8.00;99.90
55064;DHT22;40963;52.168;21.296;2023-03-21T06:51:12;8.00;99.90
55064;DHT22;40963;52.168;21.296;2023-03-21T06:53:38;8.00;99.90
55064;DHT22;40963;52.168;21.296;2023-03-21T06:56:04;8.00;99.90
55064;DHT22;40963;52.168;21.296;2023-03-21T06:58:30;8.00;99.90
55064;DHT22;40963;52.168;21.296;2023-03-21T07:00:58;8.00;99.90
55064;DHT22;40963;52.168;21.296;2023-03-21T07:03:24;8.00;99.90
55064;DHT22;40963;52.168;21.296;2023-03-21T07:05:50;8.10;99.90
55064;DHT22;40963;52.168;21.296;2023-03-21T07:08:16;8.10;99.90
55064;DHT22;40963;52.168;21.296;2023-03-21T07:10:42;8.10;99.90
55064;DHT22;40963;52.168;21.296;2023-03-21T07:13:09;8.10;99.90
55064;DHT22;40963;52.168;21.296;2023-03-21T07:15:34;8.10;99.90
55064;DHT22;40963;52.168;21.296;2023-03-21T07:18:03;8.10;99.90
55064;DHT22;40963;52.168;21.296;2023-03-21T07:20:29;8.20;99.90
55064;DHT22;40963;52.168;21.296;2023-03-21T07:22:56;8.20;99.90
55064;DHT22;40963;52.168;21.296;2023-03-21T07:25:22;8.20;99.90
55064;DHT22;40963;52.168;21.296;2023-03-21T07:27:47;8.20;99.90
55064;DHT22;40963;52.168;21.296;2023-03-21T07:30:13;8.30;99.90
55064;DHT22;40963;52.168;21.296;2023-03-21T07:32:39;8.30;99.90
55064;DHT22;40963;52.168;21.296;2023-03-21T07:35:11;8.30;99.90
55064;DHT22;40963;52.168;21.296;2023-03-21T07:37:37;8.30;99.90
55064;DHT22;40963;52.168;21.296;2023-03-21T07:40:03;8.30;99.90
55064;DHT22;40963;52.168;21.296;2023-03-21T07:42:38;8.30;99.90
55064;DHT22;40963;52.168;21.296;2023-03-21T07:45:05;8.30;99.90
55064;DHT22;40963;52.168;21.296;2023-03-21T07:47:32;8.30;99.90
55064;DHT22;40963;52.168;21.296;2023-03-21T07:49:57;8.30;99.90
55064;DHT22;40963;52.168;21.296;2023-03-21T07:52:23;8.30;99.90
55064;DHT22;40963;52.168;21.296;2023-03-21T07:54:49;8.30;99.90
55064;DHT22;40963;52.168;21.296;2023-03-21T07:57:15;8.30;99.90
55064;DHT22;40963;52.168;21.296;2023-03-21T07:59:42;8.30;99.90
55064;DHT22;40963;52.168;21.296;2023-03-21T08:02:16;8.30;99.90
55064;DHT22;40963;52.168;21.296;2023-03-21T08:04:42;8.30;99.90
55064;DHT22;40963;52.168;21.296;2023-03-21T08:07:09;8.30;99.90
55064;DHT22;40963;52.168;21.296;2023-03-21T08:09:35;8.30;99.90
55064;DHT22;40963;52.168;21.296;2023-03-21T08:12:02;8.30;99.90
55064;DHT22;40963;52.168;21.296;2023-03-21T08:14:28;8.40;99.90
55064;DHT22;40963;52.168;21.296;2023-03-21T08:16:53;8.40;99.90
55064;DHT22;40963;52.168;21.296;2023-03-21T08:19:19;8.50;99.90
55064;DHT22;40963;52.168;21.296;2023-03-21T08:21:47;8.50;99.90
55064;DHT22;40963;52.168;21.296;2023-03-21T08:24:14;8.60;99.90
55064;DHT22;40963;52.168;21.296;2023-03-21T08:26:40;8.60;99.90
55064;DHT22;40963;52.168;21.296;2023-03-21T08:29:06;8.60;99.90
55064;DHT22;40963;52.168;21.296;2023-03-21T08:31:31;8.70;99.90
55064;DHT22;40963;52.168;21.296;2023-03-21T08:33:57;8.80;99.90
55064;DHT22;40963;52.168;21.296;2023-03-21T08:36:23;8.80;99.90
55064;DHT22;40963;52.168;21.296;2023-03-21T08:38:49;8.80;99.90
55064;DHT22;40963;52.168;21.296;2023-03-21T08:41:21;8.80;99.90
55064;DHT22;40963;52.168;21.296;2023-03-21T08:43:48;8.70;99.90
55064;DHT22;40963;52.168;21.296;2023-03-21T08:46:15;8.70;99.90
55064;DHT22;40963;52.168;21.296;2023-03-21T08:48:41;8.70;99.90
55064;DHT22;40963;52.168;21.296;2023-03-21T08:51:07;8.70;99.90
55064;DHT22;40963;52.168;21.296;2023-03-21T08:53:33;8.80;99.90
55064;DHT22;40963;52.168;21.296;2023-03-21T08:55:58;8.80;99.90
55064;DHT22;40963;52.168;21.296;2023-03-21T08:58:24;8.90;99.90
55064;DHT22;40963;52.168;21.296;2023-03-21T09:00:50;9.00;99.90
55064;DHT22;40963;52.168;21.296;2023-03-21T09:03:16;9.00;99.90
55064;DHT22;40963;52.168;21.296;2023-03-21T09:05:42;9.00;99.90
55064;DHT22;40963;52.168;21.296;2023-03-21T09:08:10;9.10;99.90
55064;DHT22;40963;52.168;21.296;2023-03-21T09:10:38;9.10;99.90
55064;DHT22;40963;52.168;21.296;2023-03-21T09:13:03;9.10;99.90
55064;DHT22;40963;52.168;21.296;2023-03-21T09:15:29;9.20;99.90
55064;DHT22;40963;52.168;21.296;2023-03-21T09:17:57;9.30;99.90
55064;DHT22;40963;52.168;21.296;2023-03-21T09:20:37;9.40;99.90
55064;DHT22;40963;52.168;21.296;2023-03-21T09:23:03;9.40;99.90
55064;DHT22;40963;52.168;21.296;2023-03-21T09:25:28;9.40;99.90
55064;DHT22;40963;52.168;21.296;2023-03-21T09:27:55;9.30;99.90
55064;DHT22;40963;52.168;21.296;2023-03-21T09:30:21;9.40;99.90
55064;DHT22;40963;52.168;21.296;2023-03-21T09:32:47;9.40;99.90
55064;DHT22;40963;52.168;21.296;2023-03-21T09:35:15;9.40;99.90
55064;DHT22;40963;52.168;21.296;2023-03-21T09:37:43;9.40;99.90
55064;DHT22;40963;52.168;21.296;2023-03-21T09:46:43;9.60;99.90
55064;DHT22;40963;52.168;21.296;2023-03-21T09:49:21;9.50;99.90
55064;DHT22;40963;52.168;21.296;2023-03-21T09:51:51;9.50;99.90
55064;DHT22;40963;52.168;21.296;2023-03-21T09:54:29;9.50;99.90
55064;DHT22;40963;52.168;21.296;2023-03-21T09:57:09;9.50;99.90
55064;DHT22;40963;52.168;21.296;2023-03-21T09:59:37;9.50;99.90
55064;DHT22;40963;52.168;21.296;2023-03-21T10:05:25;9.40;99.90
55064;DHT22;40963;52.168;21.296;2023-03-21T10:08:14;9.40;99.90
55064;DHT22;40963;52.168;21.296;2023-03-21T10:10:50;9.40;99.90
55064;DHT22;40963;52.168;21.296;2023-03-21T10:13:28;9.40;99.90
55064;DHT22;40963;52.168;21.296;2023-03-21T10:15:58;9.40;99.90
55064;DHT22;40963;52.168;21.296;2023-03-21T10:18:28;9.40;99.90
55064;DHT22;40963;52.168;21.296;2023-03-21T10:20:54;9.40;99.90
55064;DHT22;40963;52.168;21.296;2023-03-21T10:23:27;9.40;99.90
55064;DHT22;40963;52.168;21.296;2023-03-21T10:26:01;9.40;99.90
55064;DHT22;40963;52.168;21.296;2023-03-21T10:28:32;9.50;99.90
55064;DHT22;40963;52.168;21.296;2023-03-21T10:31:09;9.40;99.90
55064;DHT22;40963;52.168;21.296;2023-03-21T10:33:42;9.40;99.90
55064;DHT22;40963;52.168;21.296;2023-03-21T10:36:15;9.40;99.90
55064;DHT22;40963;52.168;21.296;2023-03-21T10:38:52;9.40;99.90
55064;DHT22;40963;52.168;21.296;2023-03-21T10:41:18;9.40;99.90
55064;DHT22;40963;52.168;21.296;2023-03-21T10:43:45;9.40;99.90
55064;DHT22;40963;52.168;21.296;2023-03-21T10:46:20;9.40;99.90
55064;DHT22;40963;52.168;21.296;2023-03-21T10:48:50;9.40;99.90
55064;DHT22;40963;52.168;21.296;2023-03-21T10:51:20;9.50;99.90
55064;DHT22;40963;52.168;21.296;2023-03-21T10:54:03;9.50;99.90
55064;DHT22;40963;52.168;21.296;2023-03-21T10:56:34;9.60;99.90
55064;DHT22;40963;52.168;21.296;2023-03-21T10:59:01;9.60;99.90
55064;DHT22;40963;52.168;21.296;2023-03-21T11:01:35;9.70;99.90
55064;DHT22;40963;52.168;21.296;2023-03-21T11:04:17;9.70;99.90
55064;DHT22;40963;52.168;21.296;2023-03-21T11:06:49;9.60;99.90
55064;DHT22;40963;52.168;21.296;2023-03-21T11:09:18;9.60;99.90
55064;DHT22;40963;52.168;21.296;2023-03-21T11:12:00;9.50;99.90
55064;DHT22;40963;52.168;21.296;2023-03-21T11:14:45;9.50;99.90
55064;DHT22;40963;52.168;21.296;2023-03-21T11:19:56;9.30;99.90
55064;DHT22;40963;52.168;21.296;2023-03-21T11:22:24;9.30;99.90
55064;DHT22;40963;52.168;21.296;2023-03-21T11:24:53;9.30;99.90
55064;DHT22;40963;52.168;21.296;2023-03-21T11:27:21;9.30;99.90
55064;DHT22;40963;52.168;21.296;2023-03-21T11:29:50;9.20;99.90
55064;DHT22;40963;52.168;21.296;2023-03-21T11:32:34;9.30;99.90
55064;DHT22;40963;52.168;21.296;2023-03-21T11:35:13;9.30;99.90
55064;DHT22;40963;52.168;21.296;2023-03-21T11:37:44;9.20;99.90
55064;DHT22;40963;52.168;21.296;2023-03-21T11:40:28;9.10;99.90
55064;DHT22;40963;52.168;21.296;2023-03-21T11:45:33;9.10;99.90
55064;DHT22;40963;52.168;21.296;2023-03-21T11:48:04;9.10;99.90
55064;DHT22;40963;52.168;21.296;2023-03-21T11:50:39;9.10;99.90
55064;DHT22;40963;52.168;21.296;2023-03-21T11:55:40;9.30;99.90
55064;DHT22;40963;52.168;21.296;2023-03-21T12:01:25;9.50;99.90
55064;DHT22;40963;52.168;21.296;2023-03-21T12:06:35;9.60;99.90
55064;DHT22;40963;52.168;21.296;2023-03-21T12:19:48;9.80;99.90
55064;DHT22;40963;52.168;21.296;2023-03-21T12:22:36;9.80;99.90
55064;DHT22;40963;52.168;21.296;2023-03-21T12:25:21;9.90;99.90
55064;DHT22;40963;52.168;21.296;2023-03-21T12:39:19;10.20;99.90
55064;DHT22;40963;52.168;21.296;2023-03-21T12:44:48;10.40;99.90
55064;DHT22;40963;52.168;21.296;2023-03-21T12:47:19;10.30;99.90
55064;DHT22;40963;52.168;21.296;2023-03-21T12:49:59;10.40;99.90
55064;DHT22;40963;52.168;21.296;2023-03-21T12:52:36;10.50;99.90
55064;DHT22;40963;52.168;21.296;2023-03-21T12:55:36;10.50;99.90
55064;DHT22;40963;52.168;21.296;2023-03-21T12:58:16;10.60;99.90
55064;DHT22;40963;52.168;21.296;2023-03-21T13:00:47;10.70;99.90
55064;DHT22;40963;52.168;21.296;2023-03-21T13:03:18;10.80;99.90
55064;DHT22;40963;52.168;21.296;2023-03-21T13:05:59;10.90;99.90
55064;DHT22;40963;52.168;21.296;2023-03-21T13:08:57;10.90;99.90
55064;DHT22;40963;52.168;21.296;2023-03-21T13:11:27;10.90;99.90
55064;DHT22;40963;52.168;21.296;2023-03-21T13:14:16;10.80;99.90
55064;DHT22;40963;52.168;21.296;2023-03-21T13:17:09;10.80;99.90
55064;DHT22;40963;52.168;21.296;2023-03-21T13:19:46;10.80;99.90
55064;DHT22;40963;52.168;21.296;2023-03-21T13:22:28;10.80;99.90
55064;DHT22;40963;52.168;21.296;2023-03-21T13:25:21;10.80;99.90
55064;DHT22;40963;52.168;21.296;2023-03-21T13:28:01;10.80;99.90
55064;DHT22;40963;52.168;21.296;2023-03-21T13:30:29;10.70;99.90
55064;DHT22;40963;52.168;21.296;2023-03-21T13:33:13;10.80;99.90
55064;DHT22;40963;52.168;21.296;2023-03-21T13:35:41;10.80;99.90
55064;DHT22;40963;52.168;21.296;2023-03-21T13:38:20;10.80;99.90
55064;DHT22;40963;52.168;21.296;2023-03-21T13:41:32;10.70;99.90
55064;DHT22;40963;52.168;21.296;2023-03-21T13:48:58;10.60;99.90
55064;DHT22;40963;52.168;21.296;2023-03-21T13:54:13;10.50;99.90
55064;DHT22;40963;52.168;21.296;2023-03-21T13:59:10;10.60;99.90
55064;DHT22;40963;52.168;21.296;2023-03-21T14:01:40;10.60;99.90
55064;DHT22;40963;52.168;21.296;2023-03-21T14:04:16;10.60;99.90
55064;DHT22;40963;52.168;21.296;2023-03-21T14:06:44;10.60;99.90
55064;DHT22;40963;52.168;21.296;2023-03-21T14:09:21;10.60;99.90
55064;DHT22;40963;52.168;21.296;2023-03-21T14:11:49;10.50;99.90
55064;DHT22;40963;52.168;21.296;2023-03-21T14:14:18;10.50;99.90
55064;DHT22;40963;52.168;21.296;2023-03-21T14:16:44;10.50;99.90
55064;DHT22;40963;52.168;21.296;2023-03-21T14:19:11;10.40;99.90
55064;DHT22;40963;52.168;21.296;2023-03-21T14:21:37;10.30;99.90
55064;DHT22;40963;52.168;21.296;2023-03-21T14:24:12;10.30;99.90
55064;DHT22;40963;52.168;21.296;2023-03-21T14:26:46;10.20;99.90
55064;DHT22;40963;52.168;21.296;2023-03-21T14:29:32;10.10;99.90
55064;DHT22;40963;52.168;21.296;2023-03-21T14:32:01;10.10;99.90
55064;DHT22;40963;52.168;21.296;2023-03-21T14:34:29;10.10;99.90
55064;DHT22;40963;52.168;21.296;2023-03-21T14:36:56;10.10;99.90
55064;DHT22;40963;52.168;21.296;2023-03-21T14:39:30;10.00;99.90
55064;DHT22;40963;52.168;21.296;2023-03-21T14:42:05;10.00;99.90
55064;DHT22;40963;52.168;21.296;2023-03-21T14:44:39;9.90;99.90
55064;DHT22;40963;52.168;21.296;2023-03-21T14:47:06;9.90;99.90
55064;DHT22;40963;52.168;21.296;2023-03-21T14:49:36;9.90;99.90
55064;DHT22;40963;52.168;21.296;2023-03-21T14:52:05;9.90;99.90
55064;DHT22;40963;52.168;21.296;2023-03-21T14:54:34;9.90;99.90
55064;DHT22;40963;52.168;21.296;2023-03-21T14:57:04;9.90;99.90
55064;DHT22;40963;52.168;21.296;2023-03-21T14:59:35;9.90;99.90
55064;DHT22;40963;52.168;21.296;2023-03-21T15:02:06;9.90;99.90
55064;DHT22;40963;52.168;21.296;2023-03-21T15:04:36;9.90;99.90
55064;DHT22;40963;52.168;21.296;2023-03-21T15:07:02;9.90;99.90
55064;DHT22;40963;52.168;21.296;2023-03-21T15:09:32;10.00;99.90
55064;DHT22;40963;52.168;21.296;2023-03-21T15:11:59;10.00;99.90
55064;DHT22;40963;52.168;21.296;2023-03-21T15:14:31;10.20;99.90
55064;DHT22;40963;52.168;21.296;2023-03-21T15:16:59;10.20;99.90
55064;DHT22;40963;52.168;21.296;2023-03-21T15:19:32;10.30;99.90
55064;DHT22;40963;52.168;21.296;2023-03-21T15:22:04;10.40;99.90
55064;DHT22;40963;52.168;21.296;2023-03-21T15:24:37;10.50;99.90
55064;DHT22;40963;52.168;21.296;2023-03-21T15:27:07;10.50;99.90
55064;DHT22;40963;52.168;21.296;2023-03-21T15:29:36;10.50;99.90
55064;DHT22;40963;52.168;21.296;2023-03-21T15:32:06;10.50;99.90
55064;DHT22;40963;52.168;21.296;2023-03-21T15:34:37;10.50;99.70
55064;DHT22;40963;52.168;21.296;2023-03-21T15:37:07;10.40;99.70
55064;DHT22;40963;52.168;21.296;2023-03-21T15:39:33;10.40;99.80
55064;DHT22;40963;52.168;21.296;2023-03-21T15:42:04;10.40;99.60
55064;DHT22;40963;52.168;21.296;2023-03-21T15:44:31;10.40;99.50
55064;DHT22;40963;52.168;21.296;2023-03-21T15:46:58;10.40;99.80
55064;DHT22;40963;52.168;21.296;2023-03-21T15:49:38;10.50;99.90
55064;DHT22;40963;52.168;21.296;2023-03-21T15:52:10;10.50;99.50
55064;DHT22;40963;52.168;21.296;2023-03-21T15:54:45;10.50;99.30
55064;DHT22;40963;52.168;21.296;2023-03-21T15:57:32;10.40;99.10
55064;DHT22;40963;52.168;21.296;2023-03-21T16:02:46;10.40;99.40
55064;DHT22;40963;52.168;21.296;2023-03-21T16:05:28;10.40;99.50
55064;DHT22;40963;52.168;21.296;2023-03-21T16:10:37;10.40;99.90
55064;DHT22;40963;52.168;21.296;2023-03-21T16:13:03;10.50;99.90
55064;DHT22;40963;52.168;21.296;2023-03-21T16:15:30;10.50;99.90
55064;DHT22;40963;52.168;21.296;2023-03-21T16:17:59;10.60;99.70
55064;DHT22;40963;52.168;21.296;2023-03-21T16:20:27;10.50;99.40
55064;DHT22;40963;52.168;21.296;2023-03-21T16:22:57;10.50;99.40
55064;DHT22;40963;52.168;21.296;2023-03-21T16:25:23;10.40;99.30
55064;DHT22;40963;52.168;21.296;2023-03-21T16:27:49;10.30;99.40
55064;DHT22;40963;52.168;21.296;2023-03-21T16:30:18;10.20;99.60
55064;DHT22;40963;52.168;21.296;2023-03-21T16:32:44;10.10;99.90
55064;DHT22;40963;52.168;21.296;2023-03-21T16:35:10;10.00;99.90
55064;DHT22;40963;52.168;21.296;2023-03-21T16:37:36;9.90;99.90
55064;DHT22;40963;52.168;21.296;2023-03-21T16:40:05;9.80;99.90
55064;DHT22;40963;52.168;21.296;2023-03-21T16:42:35;9.70;99.90
55064;DHT22;40963;52.168;21.296;2023-03-21T16:45:01;9.60;99.90
55064;DHT22;40963;52.168;21.296;2023-03-21T16:47:26;9.50;99.90
55064;DHT22;40963;52.168;21.296;2023-03-21T16:49:52;9.50;99.90
55064;DHT22;40963;52.168;21.296;2023-03-21T16:52:18;9.40;99.90
55064;DHT22;40963;52.168;21.296;2023-03-21T16:54:43;9.20;99.90
55064;DHT22;40963;52.168;21.296;2023-03-21T16:57:23;9.10;99.90
55064;DHT22;40963;52.168;21.296;2023-03-21T16:59:53;9.00;99.90
55064;DHT22;40963;52.168;21.296;2023-03-21T17:02:19;8.90;99.90
55064;DHT22;40963;52.168;21.296;2023-03-21T17:04:46;8.80;99.90
55064;DHT22;40963;52.168;21.296;2023-03-21T17:07:12;8.70;99.90
55064;DHT22;40963;52.168;21.296;2023-03-21T17:09:41;8.60;99.90
55064;DHT22;40963;52.168;21.296;2023-03-21T17:12:13;8.50;99.90
55064;DHT22;40963;52.168;21.296;2023-03-21T17:14:43;8.40;99.90
55064;DHT22;40963;52.168;21.296;2023-03-21T17:17:13;8.20;99.90
55064;DHT22;40963;52.168;21.296;2023-03-21T17:19:39;8.20;99.90